createdAt,value
2022-12-01T00:02:06.407Z,62.57
2022-12-01T00:04:57.454Z,58.20
2022-12-01T00:07:49.103Z,53.30
2022-12-01T00:10:39.815Z,59.03
2022-12-01T00:13:28.417Z,56.57
2022-12-01T00:16:22.133Z,55.90
2022-12-01T00:19:10.780Z,56.23
2022-12-01T00:22:03.656Z,53.57
2022-12-01T00:24:54.217Z,53.93
2022-12-01T00:27:53.335Z,52.07
2022-12-01T00:30:41.920Z,52.37
2022-12-01T00:33:30.535Z,61.23
2022-12-01T00:36:19.337Z,54.00
2022-12-01T00:39:09.472Z,51.77
2022-12-01T00:41:59.188Z,56.60
2022-12-01T00:44:51.836Z,61.70
2022-12-01T00:47:41.968Z,53.50
2022-12-01T00:50:32.187Z,56.73
2022-12-01T00:53:41.027Z,53.03
2022-12-01T00:56:35.744Z,54.43
2022-12-01T00:59:27.276Z,55.17
2022-12-01T01:02:18.614Z,54.90
2022-12-01T01:05:14.136Z,57.53
2022-12-01T01:08:02.758Z,59.90
2022-12-01T01:10:57.894Z,61.53
2022-12-01T01:13:48.533Z,56.47
2022-12-01T01:16:39.747Z,57.43
2022-12-01T01:19:31.977Z,57.40
2022-12-01T01:22:21.783Z,58.27
2022-12-01T01:25:15.183Z,61.10
2022-12-01T01:28:05.760Z,58.67
2022-12-01T01:30:54.340Z,57.53
2022-12-01T01:33:45.823Z,53.13
2022-12-01T01:36:36.852Z,62.20
2022-12-01T01:39:28.132Z,59.67
2022-12-01T01:42:19.284Z,57.40
2022-12-01T01:45:22.157Z,64.17
2022-12-01T01:48:14.153Z,59.70
2022-12-01T01:51:12.724Z,61.03
2022-12-01T01:54:08.852Z,54.43
2022-12-01T01:56:58.981Z,57.57
2022-12-01T01:59:54.158Z,54.33
2022-12-01T02:02:50.073Z,52.73
2022-12-01T02:05:42.797Z,58.10
2022-12-01T02:08:47.783Z,61.43
2022-12-01T02:11:53.954Z,57.17
2022-12-01T02:15:00.216Z,54.63
2022-12-01T02:17:54.259Z,58.37
2022-12-01T02:21:00.702Z,60.80
2022-12-01T02:24:08.275Z,62.10
2022-12-01T02:27:02.811Z,59.43
2022-12-01T02:30:13.773Z,58.50
2022-12-01T02:33:13.413Z,58.30
2022-12-01T02:36:03.515Z,60.93
2022-12-01T02:38:57.943Z,59.13
2022-12-01T02:41:51.100Z,59.60
2022-12-01T02:44:41.679Z,59.33
2022-12-01T02:47:33.385Z,62.00
2022-12-01T02:50:32.876Z,62.80
2022-12-01T02:53:21.598Z,58.43
2022-12-01T02:56:14.632Z,61.53
2022-12-01T02:59:05.245Z,62.20
2022-12-01T03:02:10.618Z,62.27
2022-12-01T03:05:03.136Z,61.13
2022-12-01T03:07:58.564Z,61.23
2022-12-01T03:10:52.448Z,65.60
2022-12-01T03:13:44.495Z,61.93
2022-12-01T03:16:37.822Z,65.57
2022-12-01T03:19:32.418Z,62.17
2022-12-01T03:22:24.818Z,59.20
2022-12-01T03:25:15.623Z,60.20
2022-12-01T03:28:21.219Z,63.43
2022-12-01T03:31:24.126Z,65.00
2022-12-01T03:34:29.984Z,61.17
2022-12-01T03:37:22.198Z,65.57
2022-12-01T03:40:13.295Z,62.13
2022-12-01T03:43:07.615Z,65.13
2022-12-01T03:45:58.592Z,71.10
2022-12-01T03:48:48.616Z,62.80
2022-12-01T03:51:43.309Z,67.13
2022-12-01T03:54:43.884Z,63.80
2022-12-01T03:57:35.490Z,68.30
2022-12-01T04:00:25.634Z,64.13
2022-12-01T04:03:24.192Z,69.90
2022-12-01T04:06:14.280Z,63.57
2022-12-01T04:09:02.838Z,65.60
2022-12-01T04:12:08.820Z,63.20
2022-12-01T04:14:57.811Z,71.00
2022-12-01T04:17:47.818Z,63.73
2022-12-01T04:20:36.391Z,67.93
2022-12-01T04:23:43.975Z,57.87
2022-12-01T04:26:37.420Z,60.27
2022-12-01T04:29:27.078Z,57.97
2022-12-01T04:32:20.183Z,67.67
2022-12-01T04:35:11.597Z,63.37
2022-12-01T04:38:01.008Z,61.77
2022-12-01T04:40:49.571Z,64.20
2022-12-01T04:43:41.185Z,60.60
2022-12-01T04:46:32.126Z,65.40
2022-12-01T04:49:27.428Z,63.17
2022-12-01T04:52:22.136Z,66.57
2022-12-01T04:55:11.242Z,62.23
2022-12-01T04:58:02.693Z,63.57
2022-12-01T05:00:51.291Z,69.33
2022-12-01T05:03:42.298Z,62.37
2022-12-01T05:06:34.299Z,62.40
2022-12-01T05:09:27.931Z,62.40
2022-12-01T05:12:25.673Z,69.10
2022-12-01T05:15:20.368Z,61.63
2022-12-01T05:18:18.939Z,67.83
2022-12-01T05:21:06.908Z,60.77
2022-12-01T05:24:00.145Z,59.60
2022-12-01T05:26:56.901Z,64.77
2022-12-01T05:29:47.176Z,58.90
2022-12-01T05:32:37.999Z,65.57
2022-12-01T05:35:28.548Z,61.30
2022-12-01T05:38:17.345Z,66.80
2022-12-01T05:41:07.605Z,58.10
2022-12-01T05:43:57.519Z,67.70
2022-12-01T05:46:51.551Z,63.90
2022-12-01T05:49:52.103Z,56.73
2022-12-01T05:52:44.869Z,59.57
2022-12-01T05:55:36.721Z,62.80
2022-12-01T05:58:25.375Z,67.03
2022-12-01T06:01:18.433Z,65.27
2022-12-01T06:04:11.453Z,61.80
2022-12-01T06:07:01.237Z,64.70
2022-12-01T06:09:51.943Z,59.60
2022-12-01T06:12:42.378Z,69.17
2022-12-01T06:15:35.723Z,65.80
2022-12-01T06:18:27.905Z,66.77
2022-12-01T06:21:18.780Z,68.87
2022-12-01T06:24:11.918Z,65.67
2022-12-01T06:27:00.482Z,62.17
2022-12-01T06:29:54.900Z,65.90
2022-12-01T06:32:46.240Z,68.70
2022-12-01T06:35:36.263Z,63.67
2022-12-01T06:38:26.627Z,60.03
2022-12-01T06:41:18.316Z,70.57
2022-12-01T06:44:07.079Z,58.53
2022-12-01T06:47:07.862Z,63.10
2022-12-01T06:49:58.352Z,67.30
2022-12-01T06:52:48.478Z,63.53
2022-12-01T06:55:42.891Z,65.63
2022-12-01T06:58:31.819Z,70.90
2022-12-01T07:01:22.830Z,66.73
2022-12-01T07:04:18.813Z,69.47
2022-12-01T07:07:16.260Z,63.40
2022-12-01T07:10:10.888Z,63.00
2022-12-01T07:13:11.167Z,60.90
2022-12-01T07:16:04.589Z,68.33
2022-12-01T07:18:57.596Z,70.17
2022-12-01T07:21:51.868Z,66.33
2022-12-01T07:24:51.424Z,66.77
2022-12-01T07:27:45.395Z,67.13
2022-12-01T07:30:50.622Z,64.40
2022-12-01T07:33:42.189Z,67.70
2022-12-01T07:36:31.989Z,62.33
2022-12-01T07:39:20.564Z,60.97
2022-12-01T07:42:10.812Z,65.90
2022-12-01T07:45:11.455Z,59.47
2022-12-01T07:48:10.076Z,62.23
2022-12-01T07:50:58.612Z,64.53
2022-12-01T07:53:54.883Z,70.37
2022-12-01T07:56:43.434Z,66.60
2022-12-01T07:59:32.018Z,62.20
2022-12-01T08:02:24.789Z,63.77
2022-12-01T08:05:17.732Z,72.40
2022-12-01T08:08:06.576Z,67.27
2022-12-01T08:10:55.561Z,63.57
2022-12-01T08:13:46.329Z,66.47
2022-12-01T08:16:37.316Z,62.23
2022-12-01T08:19:31.429Z,63.70
2022-12-01T08:22:21.772Z,58.53
2022-12-01T08:25:14.162Z,65.63
2022-12-01T08:28:04.311Z,63.10
2022-12-01T08:30:52.910Z,61.70
2022-12-01T08:33:43.318Z,59.27
2022-12-01T08:36:38.148Z,62.10
2022-12-01T08:39:27.882Z,59.93
2022-12-01T08:42:17.560Z,60.57
2022-12-01T08:45:06.477Z,62.50
2022-12-01T08:47:59.087Z,56.80
2022-12-01T08:50:50.577Z,60.47
2022-12-01T08:53:45.794Z,57.27
2022-12-01T08:56:35.543Z,55.80
2022-12-01T08:59:27.133Z,54.63
2022-12-01T09:02:18.242Z,56.97
2022-12-01T09:05:11.352Z,51.57
2022-12-01T09:08:16.447Z,53.30
2022-12-01T09:11:10.328Z,55.03
2022-12-01T09:14:00.649Z,49.57
2022-12-01T09:16:51.549Z,49.97
2022-12-01T09:19:40.150Z,52.73
2022-12-01T09:22:34.636Z,50.17
2022-12-01T09:25:31.665Z,53.63
2022-12-01T09:28:24.489Z,49.33
2022-12-01T09:31:13.917Z,47.20
2022-12-01T09:34:05.307Z,52.97
2022-12-01T09:36:59.112Z,51.73
2022-12-01T09:39:52.017Z,44.97
2022-12-01T09:42:43.032Z,49.70
2022-12-01T09:45:34.890Z,47.87
2022-12-01T09:48:27.320Z,45.93
2022-12-01T09:51:18.727Z,47.00
2022-12-01T09:54:10.824Z,43.33
2022-12-01T09:57:10.787Z,46.17
2022-12-01T10:00:05.899Z,41.90
2022-12-01T10:02:58.846Z,41.57
2022-12-01T10:06:25.228Z,37.43
2022-12-01T10:09:05.217Z,39.33
2022-12-01T10:11:57.567Z,39.63
2022-12-01T10:14:48.272Z,38.37
2022-12-01T10:17:44.244Z,35.93
2022-12-01T10:20:37.449Z,38.73
2022-12-01T10:23:42.188Z,38.33
2022-12-01T10:26:36.387Z,37.50
2022-12-01T10:29:30.389Z,42.10
2022-12-01T10:32:33.820Z,40.33
2022-12-01T10:35:23.813Z,35.73
2022-12-01T10:38:25.977Z,40.00
2022-12-01T10:41:19.019Z,41.30
2022-12-01T10:44:08.690Z,43.20
2022-12-01T10:46:57.778Z,40.67
2022-12-01T10:49:49.819Z,35.80
2022-12-01T10:52:39.749Z,37.23
2022-12-01T10:56:21.230Z,33.53
2022-12-01T10:58:53.142Z,31.97
2022-12-01T11:01:52.922Z,35.10
2022-12-01T11:04:48.503Z,34.13
2022-12-01T11:07:44.599Z,30.57
2022-12-01T11:10:39.178Z,31.37
2022-12-01T11:13:34.512Z,32.10
2022-12-01T11:16:44.143Z,30.77
2022-12-01T11:19:35.156Z,32.17
2022-12-01T11:22:26.090Z,33.07
2022-12-01T11:25:21.841Z,31.97
2022-12-01T11:28:21.841Z,36.10
2022-12-01T11:31:11.391Z,30.90
2022-12-01T11:34:04.110Z,31.23
2022-12-01T11:36:54.848Z,33.90
2022-12-01T11:39:47.694Z,36.00
2022-12-01T11:43:04.128Z,40.93
2022-12-01T11:46:00.257Z,39.00
2022-12-01T11:49:01.846Z,42.70
2022-12-01T11:51:52.045Z,41.63
2022-12-01T11:54:56.056Z,39.80
2022-12-01T11:57:50.974Z,42.97
2022-12-01T12:00:47.948Z,35.73
2022-12-01T12:03:46.888Z,42.43
2022-12-01T12:06:41.602Z,38.33
2022-12-01T12:09:35.666Z,41.23
2022-12-01T12:12:38.992Z,37.23
2022-12-01T12:15:36.441Z,37.40
2022-12-01T12:18:38.672Z,35.63
2022-12-01T12:21:32.780Z,41.03
2022-12-01T12:24:39.866Z,32.57
2022-12-01T12:27:37.981Z,33.30
2022-12-01T12:30:33.277Z,36.90
2022-12-01T12:33:34.809Z,35.07
2022-12-01T12:36:28.317Z,37.73
2022-12-01T12:39:26.913Z,34.90
2022-12-01T12:42:19.277Z,27.80
2022-12-01T12:45:13.700Z,26.23
2022-12-01T12:48:19.471Z,31.37
2022-12-01T12:51:18.685Z,27.53
2022-12-01T12:54:14.590Z,29.27
2022-12-01T12:57:09.607Z,28.00
2022-12-01T13:00:03.015Z,28.10
2022-12-01T13:02:58.083Z,29.57
2022-12-01T13:05:54.907Z,24.07
2022-12-01T13:08:52.227Z,27.57
2022-12-01T13:11:46.113Z,29.30
2022-12-01T13:14:41.273Z,32.43
2022-12-01T13:17:32.720Z,28.47
2022-12-01T13:20:31.264Z,25.73
2022-12-01T13:23:21.791Z,26.93
2022-12-01T13:26:13.069Z,32.57
2022-12-01T13:29:01.894Z,28.30
2022-12-01T13:31:55.856Z,28.07
2022-12-01T13:34:53.747Z,29.17
2022-12-01T13:37:44.408Z,26.30
2022-12-01T13:40:34.312Z,26.33
2022-12-01T13:43:25.466Z,27.10
2022-12-01T13:46:20.922Z,24.17
2022-12-01T13:49:28.855Z,28.87
2022-12-01T13:52:30.886Z,27.10
2022-12-01T13:55:27.741Z,25.40
2022-12-01T13:58:28.774Z,29.17
2022-12-01T14:01:36.339Z,28.97
2022-12-01T14:04:37.359Z,30.00
2022-12-01T14:07:49.645Z,27.33
2022-12-01T14:10:55.723Z,25.70
2022-12-01T14:13:50.242Z,27.80
2022-12-01T14:16:51.584Z,27.70
2022-12-01T14:19:51.999Z,26.33
2022-12-01T14:22:43.724Z,24.20
2022-12-01T14:25:39.845Z,26.73
2022-12-01T14:28:54.445Z,26.10
2022-12-01T14:32:02.713Z,26.80
2022-12-01T14:35:04.008Z,25.60
2022-12-01T14:37:57.090Z,33.10
2022-12-01T14:40:45.635Z,26.30
2022-12-01T14:43:55.269Z,30.07
2022-12-01T14:46:48.836Z,26.67
2022-12-01T14:49:52.671Z,29.43
2022-12-01T14:52:44.019Z,24.77
2022-12-01T14:55:42.357Z,29.63
2022-12-01T14:58:32.421Z,21.17
2022-12-01T15:01:26.187Z,27.73
2022-12-01T15:04:15.420Z,25.20
2022-12-01T15:07:04.064Z,25.80
2022-12-01T15:10:10.018Z,26.93
2022-12-01T15:13:00.762Z,25.30
2022-12-01T15:15:53.643Z,25.63
2022-12-01T15:18:42.252Z,26.70
2022-12-01T15:21:31.648Z,28.47
2022-12-01T15:24:26.637Z,23.47
2022-12-01T15:27:27.461Z,25.10
2022-12-01T15:30:22.870Z,23.23
2022-12-01T15:33:18.413Z,25.27
2022-12-01T15:36:11.259Z,23.10
2022-12-01T15:39:07.178Z,26.70
2022-12-01T15:42:05.668Z,26.27
2022-12-01T15:45:02.785Z,21.77
2022-12-01T15:47:56.684Z,21.07
2022-12-01T15:50:50.347Z,21.30
2022-12-01T15:53:45.259Z,29.47
2022-12-01T15:56:38.464Z,20.60
2022-12-01T15:59:36.888Z,21.90
2022-12-01T16:02:29.954Z,19.83
2022-12-01T16:05:19.814Z,19.67
2022-12-01T16:08:22.146Z,20.30
2022-12-01T16:11:11.756Z,20.80
2022-12-01T16:14:02.252Z,23.57
2022-12-01T16:16:51.475Z,23.97
2022-12-01T16:19:49.963Z,21.50
2022-12-01T16:22:38.637Z,23.93
2022-12-01T16:25:40.430Z,24.33
2022-12-01T16:28:38.959Z,23.80
2022-12-01T16:31:30.315Z,25.20
2022-12-01T16:34:44.569Z,25.80
2022-12-01T16:37:51.454Z,25.10
2022-12-01T16:40:42.148Z,27.43
2022-12-01T16:43:35.380Z,30.60
2022-12-01T16:46:25.174Z,29.87
2022-12-01T16:49:13.853Z,29.70
2022-12-01T16:52:42.970Z,31.73
2022-12-01T16:55:40.042Z,34.10
2022-12-01T16:58:36.561Z,34.67
2022-12-01T17:01:29.390Z,33.83
2022-12-01T17:04:20.549Z,32.97
2022-12-01T17:07:11.496Z,36.00
2022-12-01T17:10:00.720Z,35.80
2022-12-01T17:12:56.041Z,30.57
2022-12-01T17:15:48.409Z,35.23
2022-12-01T17:18:47.776Z,35.53
2022-12-01T17:21:41.664Z,34.90
2022-12-01T17:24:34.394Z,39.93
2022-12-01T17:27:25.840Z,39.83
2022-12-01T17:30:20.208Z,41.33
2022-12-01T17:33:08.770Z,34.03
2022-12-01T17:36:01.820Z,33.77
2022-12-01T17:38:53.418Z,35.30
2022-12-01T17:41:43.332Z,38.73
2022-12-01T17:44:35.187Z,35.83
2022-12-01T17:47:27.096Z,38.07
2022-12-01T17:50:18.433Z,31.60
2022-12-01T17:53:13.363Z,35.10
2022-12-01T17:56:04.276Z,31.20
2022-12-01T17:58:56.948Z,31.47
2022-12-01T18:01:45.556Z,33.27
2022-12-01T18:04:38.853Z,33.57
2022-12-01T18:07:27.552Z,34.27
2022-12-01T18:10:22.695Z,31.70
2022-12-01T18:13:13.296Z,34.87
2022-12-01T18:16:09.042Z,36.33
2022-12-01T18:19:22.275Z,28.97
2022-12-01T18:22:18.730Z,33.73
2022-12-01T18:25:11.360Z,29.33
2022-12-01T18:28:01.499Z,34.33
2022-12-01T18:31:00.045Z,28.20
2022-12-01T18:33:52.932Z,30.40
2022-12-01T18:36:42.408Z,30.93
2022-12-01T18:39:44.975Z,32.10
2022-12-01T18:42:34.771Z,32.40
2022-12-01T18:45:30.899Z,34.50
2022-12-01T18:48:26.160Z,31.10
2022-12-01T18:51:16.834Z,34.40
2022-12-01T18:54:10.899Z,34.40
2022-12-01T18:57:06.881Z,28.63
2022-12-01T18:59:57.899Z,27.87
2022-12-01T19:02:48.860Z,31.30
2022-12-01T19:05:48.676Z,28.43
2022-12-01T19:08:37.480Z,32.10
2022-12-01T19:11:36.047Z,30.43
2022-12-01T19:14:29.983Z,32.00
2022-12-01T19:17:24.109Z,32.63
2022-12-01T19:20:17.437Z,30.67
2022-12-01T19:23:09.039Z,32.80
2022-12-01T19:26:01.592Z,36.47
2022-12-01T19:28:50.570Z,38.47
2022-12-01T19:31:40.751Z,37.93
2022-12-01T19:34:38.031Z,34.80
2022-12-01T19:37:26.861Z,33.93
2022-12-01T19:40:20.322Z,34.50
2022-12-01T19:43:17.617Z,41.30
2022-12-01T19:46:10.457Z,31.03
2022-12-01T19:49:11.959Z,38.10
2022-12-01T19:52:08.250Z,34.07
2022-12-01T19:55:10.725Z,36.67
2022-12-01T19:58:05.865Z,37.07
2022-12-01T20:00:57.093Z,32.00
2022-12-01T20:03:46.731Z,33.27
2022-12-01T20:06:42.866Z,30.63
2022-12-01T20:09:31.484Z,40.20
2022-12-01T20:12:22.123Z,36.70
2022-12-01T20:15:11.350Z,31.43
2022-12-01T20:18:01.637Z,31.80
2022-12-01T20:20:54.703Z,32.30
2022-12-01T20:23:49.557Z,31.60
2022-12-01T20:26:51.747Z,30.77
2022-12-01T20:29:42.511Z,32.00
2022-12-01T20:32:31.253Z,37.07
2022-12-01T20:35:28.418Z,38.00
2022-12-01T20:38:22.921Z,32.80
2022-12-01T20:41:22.516Z,38.40
2022-12-01T20:44:19.864Z,33.03
2022-12-01T20:47:14.625Z,38.83
2022-12-01T20:50:03.213Z,40.30
2022-12-01T20:53:00.272Z,40.13
2022-12-01T20:55:57.711Z,40.13
2022-12-01T20:58:55.889Z,38.57
2022-12-01T21:01:53.424Z,40.53
2022-12-01T21:04:46.454Z,42.70
2022-12-01T21:07:44.805Z,35.00
2022-12-01T21:10:40.790Z,38.43
2022-12-01T21:13:49.057Z,37.10
2022-12-01T21:16:40.007Z,34.67
2022-12-01T21:19:38.069Z,33.90
2022-12-01T21:22:31.868Z,32.70
2022-12-01T21:25:24.507Z,35.93
2022-12-01T21:28:18.791Z,34.03
2022-12-01T21:31:13.744Z,36.20
2022-12-01T21:34:03.851Z,36.10
2022-12-01T21:36:55.640Z,39.30
2022-12-01T21:39:45.697Z,42.50
2022-12-01T21:42:34.267Z,34.80
2022-12-01T21:45:26.020Z,41.30
2022-12-01T21:51:27.714Z,40.40
2022-12-01T21:54:23.142Z,37.20
2022-12-01T21:57:29.173Z,33.30
2022-12-01T22:00:29.900Z,34.43
2022-12-01T22:03:28.899Z,32.37
2022-12-01T22:06:30.434Z,35.57
2022-12-01T22:09:23.637Z,31.70
2022-12-01T22:12:19.133Z,37.80
2022-12-01T22:15:13.688Z,41.93
2022-12-01T22:18:07.256Z,32.90
2022-12-01T22:20:58.040Z,32.97
2022-12-01T22:23:50.520Z,42.53
2022-12-01T22:26:44.461Z,40.33
2022-12-01T22:29:35.603Z,35.20
2022-12-01T22:32:36.864Z,34.50
2022-12-01T22:35:30.760Z,32.60
2022-12-01T22:38:27.338Z,34.73
2022-12-01T22:41:21.068Z,33.60
2022-12-01T22:44:13.234Z,32.10
